Amazonia, Missouri
Current Conditions -  °F | °C
As of 4:53 PM on Thursday 18 Dec 2014 (Local Time) from KSTJ Reporting Station
Overcast Overcast  
Wind Chill: 32°   Ceiling: 1200
Heat Index: 32°   Visibility: 9mi
Dew Point: 27°   Wind: 3mph
Humidity: 82%   Direction: 80°E
Pressure: 30.23"   Gusts: NA
Location:  39.89°N, 94.89°W
Report Text: KSTJ 182253Z AUTO 08003KT 9SM OVC012 00/M03 A3023 RMK AO2 SLP246 T00001028
Loading
Personal Weather Stations






























Interactive Weather Map New forecast layout! Learn more

10-Day Weather Forecast

Advertisements
Track Severe Weather on mobile